Elmendorf Air Force Base
PAED : rendu visible

Aérodrome :











RETROUVEZ-NOUS SUR...

 
LOGIN :

S'inscrire | Disclaimer

   EN    FR    IT 

 









Légende :    VFR   VFR Marginal   IFR   IFR Intensif   IFR Très Intensif
Visi : 
Plafond : 
>= 8 km
>= 3000ft
5 à 8 km
1000 à 3000 ft
1500m à 5 km
500 à 1000 ft
800 à 1500m
200 à 500 ft
< 800m
< 200 ft
Symboles :   Orages  Brouillard  Fortes neiges  Fortes précipitations  Vent > 20 kt






- Altitude de l'aérodrome : 212 ft
- Code IATA : EDF


PAED - Elmendorf Air Force Base

DERNIER METAR :
  • 011056Z 00000KT 10SM BKN032 OVC042 M02/M04 A2879 RMK AO2A SLP747 T10171039 $

METARs EXPIRÉS :
  • 010956Z 34013KT 10SM SCT049 BKN075 M02/M04 A2876 RMK AO2A SLP737 T10211043 $
  • 010856Z 33012KT 10SM FEW050 OVC070 M02/M05 A2874 RMK AO2A SLP730 T10211053 400171134 53015 $

TAF AMD TAF PAED
Valide du 01 à 08h jusqu'au 02 à 09h UTC


010815Z 0108/0209 32012G18KT 9000 -SN FEW025 BKN050 620509 540109 QNH2870INS
TEMPO 0108/0111 28012G25KT
BECMG 0110/0111 33012KT 9999 VCSH BKN050 620509 540106 QNH2879INS
TEMPO 0111/0118 9000 -FZRA BKN040 690004
BECMG 0122/0123 VRB06KT 9999 NSW FEW050 BKN100 520106 QNH2880INS TX03/0123Z TNM03/0114Z
FIR PAZA / Amérique du Nord



MET'MAP, la Météo Aéronautique d'un coup d'oeil ! - Copyright ORBIFLY Décembre 2007 - Disclaimer

ORBIFLY MET'MAP TEAM :

Programmation & Développement : Alexandra Zaïnal
Sur une idée originale de : Baudouin d'Aumeries
Assistance à la programmation : Marc-Olivier Méhu
Soutien technique & logistique : Manuel Goepfert

Contact : metmap@orbifly.com




SOURCES & CREDITS :

   NOAA       Earth
Advisory